Time;durP1;ratioP1;P1;durP2;ratioP2;P2;SDS_P1;SDS_P2;PMS_P1;PMS_P2;Temp;Humidity;BMP_temperature;BMP_pressure;BME280_temperature;BME280_humidity;BME280_pressure;Samples;Min_cycle;Max_cycle;Signal;HPM_P1;HPM_P2
2022/09/23 00:02:51;;;;;;;7.43;3.65;;;;;;;;;;10552336;28;20523;-76
2022/09/23 00:07:56;;;;;;;8.38;4.22;;;;;;;;;;10563703;28;20051;-76
2022/09/23 00:13:00;;;;;;;8.90;4.13;;;;;;;;;;10552285;28;20066;-75
2022/09/23 00:18:07;;;;;;;9.27;4.18;;;;;;;;;;10567625;28;20071;-75
2022/09/23 00:23:13;;;;;;;9.98;4.20;;;;;;;;;;10557442;28;20039;-75
2022/09/23 00:28:16;;;;;;;10.77;4.38;;;;;;;;;;10569459;28;20123;-74
2022/09/23 00:33:22;;;;;;;7.97;4.15;;;;;;;;;;10569705;28;20655;-75
2022/09/23 00:38:26;;;;;;;10.18;4.50;;;;;;;;;;10550031;28;20079;-75
2022/09/23 00:43:38;;;;;;;9.85;4.50;;;;;;;;;;10551051;28;20369;-74
2022/09/23 00:48:44;;;;;;;8.20;4.22;;;;;;;;;;10569492;28;20036;-75
2022/09/23 00:53:51;;;;;;;8.50;4.28;;;;;;;;;;10550030;28;20079;-74
2022/09/23 00:59:00;;;;;;;10.35;4.28;;;;;;;;;;10567778;28;20247;-76
2022/09/23 01:04:07;;;;;;;11.60;4.45;;;;;;;;;;10562539;28;20424;-76
2022/09/23 01:09:10;;;;;;;9.65;4.35;;;;;;;;;;10569451;28;20514;-76
2022/09/23 01:14:25;;;;;;;8.80;4.27;;;;;;;;;;10566313;28;20048;-75
2022/09/23 01:19:56;;;;;;;8.52;4.25;;;;;;;;;;10562889;27;20046;-75
2022/09/23 01:25:12;;;;;;;11.57;4.60;;;;;;;;;;10571113;27;20062;-76
2022/09/23 01:30:30;;;;;;;9.38;4.68;;;;;;;;;;10580875;27;20051;-76
2022/09/23 01:35:41;;;;;;;12.30;4.60;;;;;;;;;;10566000;28;20035;-76
2022/09/23 01:40:49;;;;;;;7.82;4.35;;;;;;;;;;10550346;28;20123;-75
2022/09/23 01:45:56;;;;;;;9.60;4.88;;;;;;;;;;10565190;27;20048;-75
2022/09/23 01:51:25;;;;;;;10.30;4.97;;;;;;;;;;10550747;28;20039;-76
2022/09/23 01:56:38;;;;;;;8.65;4.60;;;;;;;;;;10567244;28;20051;-77
2022/09/23 02:02:00;;;;;;;10.65;4.82;;;;;;;;;;10550562;28;20036;-77
2022/09/23 02:07:06;;;;;;;7.68;4.45;;;;;;;;;;10552229;28;20123;-78
2022/09/23 02:12:27;;;;;;;7.63;4.50;;;;;;;;;;10549065;28;20047;-76
2022/09/23 02:17:43;;;;;;;9.20;4.10;;;;;;;;;;10564854;28;20038;-76
2022/09/23 02:22:51;;;;;;;8.48;4.07;;;;;;;;;;10564128;28;20504;-76
2022/09/23 02:28:06;;;;;;;8.18;3.97;;;;;;;;;;10563625;28;20032;-76
2022/09/23 02:33:20;;;;;;;3.55;1.52;;;;;;;;;;10550432;28;20118;-76
2022/09/23 02:38:29;;;;;;;9.88;4.32;;;;;;;;;;10565394;28;20049;-75
2022/09/23 02:43:44;;;;;;;8.85;4.15;;;;;;;;;;10544317;28;20042;-75
2022/09/23 02:48:52;;;;;;;9.02;3.97;;;;;;;;;;10545760;28;20046;-76
2022/09/23 02:53:57;;;;;;;7.82;4.13;;;;;;;;;;10560622;28;20032;-77
2022/09/23 02:59:10;;;;;;;7.40;3.80;;;;;;;;;;10545420;28;20131;-77
2022/09/23 03:04:22;;;;;;;7.78;3.70;;;;;;;;;;10565123;28;20518;-77
2022/09/23 03:09:26;;;;;;;7.78;4.18;;;;;;;;;;10565237;28;20044;-76
2022/09/23 03:14:41;;;;;;;7.32;3.60;;;;;;;;;;10548132;28;20477;-77
2022/09/23 03:19:49;;;;;;;8.60;4.50;;;;;;;;;;10546600;28;20133;-77
2022/09/23 03:24:59;;;;;;;8.35;3.88;;;;;;;;;;10577398;28;20120;-76
2022/09/23 03:30:11;;;;;;;6.88;3.80;;;;;;;;;;10566202;28;20204;-75
2022/09/23 03:35:22;;;;;;;9.15;4.72;;;;;;;;;;10563134;28;20036;-75
2022/09/23 03:40:31;;;;;;;6.13;2.80;;;;;;;;;;10546526;28;20148;-76
2022/09/23 03:45:41;;;;;;;10.75;4.88;;;;;;;;;;10542605;28;20093;-75
2022/09/23 03:50:47;;;;;;;10.10;4.35;;;;;;;;;;10545461;28;20104;-75
2022/09/23 03:55:53;;;;;;;4.13;1.88;;;;;;;;;;10568260;28;20202;-76
2022/09/23 04:01:00;;;;;;;8.00;3.83;;;;;;;;;;10553263;28;20404;-75
2022/09/23 04:06:05;;;;;;;6.10;2.92;;;;;;;;;;10562338;28;20044;-77
2022/09/23 04:11:11;;;;;;;8.30;4.05;;;;;;;;;;10564460;28;20128;-75
2022/09/23 04:16:19;;;;;;;5.43;2.88;;;;;;;;;;10550194;28;20115;-75
2022/09/23 04:21:29;;;;;;;8.57;3.70;;;;;;;;;;10567888;28;20040;-77
2022/09/23 04:26:32;;;;;;;8.07;2.95;;;;;;;;;;10546878;28;20191;-76
2022/09/23 04:31:39;;;;;;;6.00;2.75;;;;;;;;;;10568959;28;20044;-77
2022/09/23 04:36:44;;;;;;;8.23;3.30;;;;;;;;;;10552391;28;20089;-77
2022/09/23 04:41:50;;;;;;;5.78;2.58;;;;;;;;;;10544754;28;20046;-76
2022/09/23 04:46:56;;;;;;;5.38;2.53;;;;;;;;;;10569787;28;20170;-76
2022/09/23 04:52:01;;;;;;;6.05;2.78;;;;;;;;;;10564123;28;20036;-77
2022/09/23 04:57:06;;;;;;;7.53;3.63;;;;;;;;;;10567533;28;20134;-76
2022/09/23 05:02:13;;;;;;;7.20;3.33;;;;;;;;;;10546382;28;20051;-77
2022/09/23 05:07:19;;;;;;;7.45;3.78;;;;;;;;;;10573222;28;20270;-78
2022/09/23 05:12:23;;;;;;;7.43;3.72;;;;;;;;;;10569944;28;20528;-76
2022/09/23 05:17:30;;;;;;;;;;;;;;;;;;10547511;28;20496;-76
2022/09/23 05:22:37;;;;;;;6.38;3.33;;;;;;;;;;10561964;28;20048;-75
2022/09/23 05:27:41;;;;;;;11.07;4.38;;;;;;;;;;10563404;28;20054;-77
2022/09/23 05:32:46;;;;;;;8.23;3.67;;;;;;;;;;10548795;28;20055;-77
2022/09/23 05:37:55;;;;;;;7.90;3.83;;;;;;;;;;10565876;28;20499;-77
2022/09/23 05:43:06;;;;;;;6.68;3.17;;;;;;;;;;10530997;28;20173;-77
2022/09/23 05:48:11;;;;;;;9.25;3.63;;;;;;;;;;10559073;28;20044;-77
2022/09/23 05:53:19;;;;;;;9.40;4.53;;;;;;;;;;10561840;28;20039;-80
2022/09/23 05:58:23;;;;;;;11.23;4.13;;;;;;;;;;10563517;28;20385;-80
2022/09/23 06:03:29;;;;;;;6.00;2.08;;;;;;;;;;10529994;28;20510;-80
2022/09/23 06:08:36;;;;;;;7.47;3.75;;;;;;;;;;10550697;28;20488;-80
2022/09/23 06:13:41;;;;;;;7.60;3.70;;;;;;;;;;10556482;28;20051;-80
2022/09/23 06:18:54;;;;;;;6.60;3.22;;;;;;;;;;10543073;28;20046;-83
2022/09/23 06:24:01;;;;;;;7.18;3.78;;;;;;;;;;10540912;28;20031;-80
2022/09/23 06:29:13;;;;;;;14.68;6.68;;;;;;;;;;10562796;28;20032;-81
2022/09/23 06:34:23;;;;;;;8.40;3.63;;;;;;;;;;10535230;28;20094;-78
2022/09/23 06:39:30;;;;;;;8.10;3.80;;;;;;;;;;10554180;28;20036;-79
2022/09/23 06:44:39;;;;;;;7.93;3.70;;;;;;;;;;10533635;28;20428;-78
2022/09/23 06:55:07;;;;;;;7.28;3.63;;;;;;;;;;10553644;28;20374;-77
2022/09/23 07:00:14;;;;;;;7.15;4.05;;;;;;;;;;10555397;28;20078;-77
2022/09/23 07:05:21;;;;;;;8.38;3.67;;;;;;;;;;10520863;28;20123;-78
2022/09/23 07:10:28;;;;;;;5.78;3.58;;;;;;;;;;10555430;28;20035;-78
2022/09/23 07:15:41;;;;;;;10.52;4.43;;;;;;;;;;10556746;28;20576;-78
2022/09/23 07:20:49;;;;;;;5.95;3.40;;;;;;;;;;10553688;28;20607;-78
2022/09/23 07:26:07;;;;;;;5.97;3.42;;;;;;;;;;10531979;28;20531;-78
2022/09/23 07:31:16;;;;;;;6.22;3.75;;;;;;;;;;10567962;27;20136;-78
2022/09/23 07:36:41;;;;;;;3.58;3.03;;;;;;;;;;10545705;28;20039;-78
2022/09/23 07:41:51;;;;;;;7.18;3.90;;;;;;;;;;10564747;28;20036;-78
2022/09/23 07:46:58;;;;;;;7.82;5.28;;;;;;;;;;10554072;28;20032;-77
2022/09/23 07:52:03;;;;;;;8.10;4.05;;;;;;;;;;10564039;28;20040;-78
2022/09/23 07:57:19;;;;;;;8.50;4.00;;;;;;;;;;10564268;28;20035;-78
2022/09/23 08:02:24;;;;;;;11.38;4.50;;;;;;;;;;10564050;28;20046;-78
2022/09/23 08:07:30;;;;;;;6.82;4.35;;;;;;;;;;10563061;28;20042;-78
2022/09/23 08:12:35;;;;;;;5.50;4.00;;;;;;;;;;10557707;28;20048;-79
2022/09/23 08:17:40;;;;;;;5.53;3.97;;;;;;;;;;10553894;28;20055;-79
2022/09/23 08:22:53;;;;;;;6.43;3.70;;;;;;;;;;10545674;28;20050;-77
2022/09/23 08:28:03;;;;;;;5.25;3.80;;;;;;;;;;10577667;27;20097;-77
2022/09/23 08:33:14;;;;;;;6.25;4.07;;;;;;;;;;10540485;28;20058;-78
2022/09/23 08:38:26;;;;;;;5.95;3.30;;;;;;;;;;10538878;28;20055;-78
2022/09/23 08:43:35;;;;;;;7.88;3.30;;;;;;;;;;10565786;28;20063;-79
2022/09/23 08:48:43;;;;;;;5.22;3.58;;;;;;;;;;10568580;28;20464;-80
2022/09/23 08:53:50;;;;;;;7.43;3.45;;;;;;;;;;10553036;28;20097;-78
2022/09/23 08:59:03;;;;;;;6.97;3.30;;;;;;;;;;10533901;28;20490;-77
2022/09/23 09:04:17;;;;;;;7.22;3.65;;;;;;;;;;10567795;28;20504;-78
2022/09/23 09:09:28;;;;;;;5.05;3.42;;;;;;;;;;10570250;28;20213;-77
2022/09/23 09:14:46;;;;;;;4.30;2.77;;;;;;;;;;10568607;28;20059;-78
2022/09/23 09:20:05;;;;;;;3.50;2.90;;;;;;;;;;10568333;28;21282;-78
2022/09/23 09:25:15;;;;;;;4.60;2.80;;;;;;;;;;10546462;28;20131;-77
2022/09/23 09:30:24;;;;;;;3.22;2.92;;;;;;;;;;10547750;28;20036;-77
2022/09/23 09:35:35;;;;;;;5.38;2.92;;;;;;;;;;10534102;28;20058;-77
2022/09/23 09:40:45;;;;;;;4.13;3.10;;;;;;;;;;10572475;28;20194;-77
2022/09/23 09:45:58;;;;;;;7.90;3.38;;;;;;;;;;10569876;28;20129;-79
2022/09/23 09:51:17;;;;;;;4.82;3.00;;;;;;;;;;10582469;27;20043;-78
2022/09/23 09:56:33;;;;;;;4.68;3.22;;;;;;;;;;10530632;28;20088;-78
2022/09/23 10:01:38;;;;;;;5.30;3.25;;;;;;;;;;10571083;28;20044;-78
2022/09/23 10:12:48;;;;;;;3.58;3.28;;;;;;;;;;10554148;28;20054;-78
2022/09/23 10:17:53;;;;;;;7.35;3.55;;;;;;;;;;10536421;28;20035;-78
2022/09/23 10:23:14;;;;;;;3.80;3.40;;;;;;;;;;10554481;28;20415;-77
2022/09/23 10:28:41;;;;;;;3.35;3.05;;;;;;;;;;10546017;28;20039;-77
2022/09/23 10:33:49;;;;;;;6.68;3.15;;;;;;;;;;10566492;28;20039;-78
2022/09/23 10:46:36;;;;;;;3.78;2.97;;;;;;;;;;10571957;28;20088;-78
2022/09/23 10:50:09;;;;;;;3.88;3.03;;;;;;;;;;10550662;28;20207;-77
2022/09/23 10:55:31;;;;;;;5.20;3.35;;;;;;;;;;10532801;28;20047;-77
2022/09/23 11:00:53;;;;;;;4.82;3.38;;;;;;;;;;10562513;28;20419;-78
2022/09/23 11:06:15;;;;;;;4.10;2.80;;;;;;;;;;10560861;28;20740;-78
2022/09/23 11:11:29;;;;;;;6.38;3.10;;;;;;;;;;10563057;28;20051;-78
2022/09/23 11:16:42;;;;;;;3.47;2.60;;;;;;;;;;10586998;28;20055;-77
2022/09/23 11:22:00;;;;;;;4.22;2.80;;;;;;;;;;10579308;28;20040;-77
2022/09/23 11:27:17;;;;;;;3.03;2.70;;;;;;;;;;10561539;28;20043;-77
2022/09/23 11:32:31;;;;;;;4.22;3.10;;;;;;;;;;10575178;28;20048;-78
2022/09/23 11:37:43;;;;;;;3.22;2.90;;;;;;;;;;10560466;28;20063;-78
2022/09/23 11:43:01;;;;;;;6.28;2.75;;;;;;;;;;10575497;28;20057;-78
2022/09/23 11:48:12;;;;;;;2.83;2.63;;;;;;;;;;10574585;28;20043;-78
2022/09/23 11:53:26;;;;;;;2.60;2.40;;;;;;;;;;10575726;28;20434;-78
2022/09/23 11:58:33;;;;;;;3.92;2.85;;;;;;;;;;10575396;28;20028;-78
2022/09/23 12:03:44;;;;;;;5.35;2.92;;;;;;;;;;10558017;28;20531;-78
2022/09/23 12:08:49;;;;;;;;;;;;;;;;;;10557980;28;20471;-77
2022/09/23 12:14:03;;;;;;;5.43;3.75;;;;;;;;;;10567490;28;20342;-77
2022/09/23 12:19:16;;;;;;;5.32;3.38;;;;;;;;;;10547707;28;20536;-77
2022/09/23 12:24:37;;;;;;;5.57;3.33;;;;;;;;;;10565682;28;20472;-77
2022/09/23 12:29:51;;;;;;;3.38;2.92;;;;;;;;;;10561755;28;20895;-77
2022/09/23 12:34:57;;;;;;;6.20;3.40;;;;;;;;;;10545311;28;20069;-78
2022/09/23 12:40:07;;;;;;;10.90;3.33;;;;;;;;;;10548434;28;20035;-77
2022/09/23 12:45:34;;;;;;;4.28;3.28;;;;;;;;;;10563055;28;20048;-77
2022/09/23 12:50:52;;;;;;;6.07;4.28;;;;;;;;;;10566056;28;20043;-77
2022/09/23 12:56:00;;;;;;;6.63;3.53;;;;;;;;;;10545941;28;20043;-77
2022/09/23 13:01:09;;;;;;;4.40;3.08;;;;;;;;;;10564971;28;20040;-77
2022/09/23 13:11:40;;;;;;;5.43;3.90;;;;;;;;;;10563491;28;20046;-78
2022/09/23 13:16:48;;;;;;;6.20;4.00;;;;;;;;;;10563172;28;20064;-77
2022/09/23 13:22:12;;;;;;;6.50;3.60;;;;;;;;;;10559874;28;20032;-77
2022/09/23 13:27:28;;;;;;;6.22;3.60;;;;;;;;;;10558228;28;20064;-77
2022/09/23 13:32:50;;;;;;;5.85;3.20;;;;;;;;;;10561065;28;20106;-77
2022/09/23 13:38:09;;;;;;;4.93;3.67;;;;;;;;;;10547836;28;20034;-77
2022/09/23 13:43:19;;;;;;;6.05;3.40;;;;;;;;;;10558378;28;20052;-77
2022/09/23 13:48:32;;;;;;;6.65;4.10;;;;;;;;;;10547752;28;20044;-77
2022/09/23 13:53:43;;;;;;;7.30;4.53;;;;;;;;;;10560602;28;20129;-78
2022/09/23 13:58:48;;;;;;;7.20;4.07;;;;;;;;;;10546521;28;20122;-78
2022/09/23 14:04:09;;;;;;;6.50;3.53;;;;;;;;;;10546527;28;20048;-77
2022/09/23 14:09:15;;;;;;;16.65;9.05;;;;;;;;;;10561370;28;20496;-76
2022/09/23 14:14:21;;;;;;;4.63;3.60;;;;;;;;;;10518458;28;20135;-77
2022/09/23 14:19:32;;;;;;;11.73;5.53;;;;;;;;;;10531738;28;20097;-76
2022/09/23 14:24:44;;;;;;;7.13;3.50;;;;;;;;;;10526692;28;20120;-76
2022/09/23 14:30:10;;;;;;;7.07;3.50;;;;;;;;;;10546976;28;20457;-78
2022/09/23 14:35:41;;;;;;;7.95;4.88;;;;;;;;;;10560112;28;20492;-76
2022/09/23 14:40:51;;;;;;;6.90;3.80;;;;;;;;;;10542822;28;20032;-77
2022/09/23 14:45:59;;;;;;;7.05;3.67;;;;;;;;;;10558582;28;20047;-76
2022/09/23 14:51:13;;;;;;;5.95;3.20;;;;;;;;;;10536214;28;20040;-76
2022/09/23 14:56:20;;;;;;;6.20;3.60;;;;;;;;;;10541483;28;20040;-77
2022/09/23 15:01:27;;;;;;;5.38;3.20;;;;;;;;;;10558086;28;20047;-77
2022/09/23 15:06:38;;;;;;;4.72;3.15;;;;;;;;;;10580239;27;20104;-77
2022/09/23 15:11:43;;;;;;;6.43;3.25;;;;;;;;;;10556609;28;20127;-77
2022/09/23 15:17:01;;;;;;;4.57;3.17;;;;;;;;;;10534131;28;20523;-77
2022/09/23 15:22:11;;;;;;;6.93;4.07;;;;;;;;;;10537175;28;20051;-76
2022/09/23 15:27:36;;;;;;;5.88;3.50;;;;;;;;;;10543118;28;20191;-77
2022/09/23 15:38:13;;;;;;;5.82;3.42;;;;;;;;;;10564707;28;20066;-78
2022/09/23 16:03:44;;;;;;;5.20;3.25;;;;;;;;;;10576048;28;20492;-78
2022/09/23 16:08:48;;;;;;;5.70;3.15;;;;;;;;;;10572252;28;20461;-77
2022/09/23 16:13:58;;;;;;;5.25;3.08;;;;;;;;;;10552754;28;20044;-77
2022/09/23 16:19:07;;;;;;;7.07;3.10;;;;;;;;;;10561008;28;20039;-77
2022/09/23 16:24:14;;;;;;;5.47;3.05;;;;;;;;;;10571976;28;20050;-78
2022/09/23 16:29:20;;;;;;;9.40;5.25;;;;;;;;;;10572841;28;20385;-78
2022/09/23 16:34:29;;;;;;;7.20;3.88;;;;;;;;;;10570513;28;20627;-78
2022/09/23 16:39:37;;;;;;;7.33;4.00;;;;;;;;;;10554237;28;20038;-77
2022/09/23 16:44:44;;;;;;;6.80;4.20;;;;;;;;;;10573522;28;20046;-77
2022/09/23 16:56:27;;;;;;;6.05;3.85;;;;;;;;;;10568173;28;20040;-77
2022/09/23 17:24:27;;;;;;;7.63;3.63;;;;;;;;;;10530719;28;20349;-78
2022/09/23 17:29:38;;;;;;;8.50;3.40;;;;;;;;;;10569265;28;20119;-78
2022/09/23 17:34:55;;;;;;;6.63;3.40;;;;;;;;;;10569596;28;20051;-78
2022/09/23 17:40:05;;;;;;;16.80;6.60;;;;;;;;;;10574025;28;20415;-79
2022/09/23 17:51:07;;;;;;;10.35;4.85;;;;;;;;;;10473636;28;20115;-77
2022/09/23 17:56:22;;;;;;;11.43;5.43;;;;;;;;;;10567318;28;20104;-77
2022/09/23 18:01:38;;;;;;;11.88;4.57;;;;;;;;;;10552040;28;20042;-78
2022/09/23 18:06:44;;;;;;;;;;;;;;;;;;10550447;28;20042;-78
2022/09/23 18:11:53;;;;;;;8.23;4.35;;;;;;;;;;10546490;28;19942;-77
2022/09/23 18:17:01;;;;;;;10.30;4.47;;;;;;;;;;10567758;28;20051;-76
2022/09/23 18:22:04;;;;;;;11.57;5.72;;;;;;;;;;10546638;28;20485;-77
2022/09/23 18:27:10;;;;;;;13.20;6.40;;;;;;;;;;10552404;28;20528;-77
2022/09/23 18:32:15;;;;;;;10.35;4.88;;;;;;;;;;10542485;28;20058;-79
2022/09/23 18:37:19;;;;;;;10.75;4.85;;;;;;;;;;10566161;28;20062;-77
2022/09/23 18:42:29;;;;;;;9.07;4.65;;;;;;;;;;10548935;28;20504;-78
2022/09/23 18:53:00;;;;;;;9.68;5.15;;;;;;;;;;10549591;28;20056;-78
2022/09/23 18:58:15;;;;;;;13.30;5.38;;;;;;;;;;10554843;28;20136;-78
2022/09/23 19:03:25;;;;;;;12.25;6.10;;;;;;;;;;10559845;28;20481;-78
2022/09/23 19:08:31;;;;;;;11.45;5.15;;;;;;;;;;10566117;28;20104;-77
2022/09/23 19:13:38;;;;;;;16.45;7.13;;;;;;;;;;10561022;28;20052;-78
2022/09/23 19:24:13;;;;;;;13.73;6.70;;;;;;;;;;10567755;28;20044;-77
2022/09/23 19:29:20;;;;;;;14.10;5.70;;;;;;;;;;10555261;28;20035;-78
2022/09/23 19:34:29;;;;;;;17.30;6.28;;;;;;;;;;10556324;28;20046;-78
2022/09/23 19:39:39;;;;;;;19.40;6.75;;;;;;;;;;10550950;28;20050;-80
2022/09/23 19:44:53;;;;;;;73.82;20.20;;;;;;;;;;10556322;27;20031;-79
2022/09/23 19:49:57;;;;;;;;;;;;;;;;;;10555217;28;20048;-77
2022/09/23 19:55:07;;;;;;;58.08;17.02;;;;;;;;;;10571086;28;20342;-77
2022/09/23 20:00:21;;;;;;;28.05;10.45;;;;;;;;;;10570762;28;20046;-78
2022/09/23 20:05:27;;;;;;;38.13;11.88;;;;;;;;;;10553781;28;20039;-78
2022/09/23 20:10:33;;;;;;;36.58;13.35;;;;;;;;;;10585730;27;20044;-78
2022/09/23 20:15:49;;;;;;;26.00;9.52;;;;;;;;;;10570649;27;20032;-78
2022/09/23 20:20:58;;;;;;;13.50;6.63;;;;;;;;;;10572400;28;20044;-79
2022/09/23 20:31:33;;;;;;;17.73;7.07;;;;;;;;;;10553763;28;20028;-77
2022/09/23 20:36:42;;;;;;;42.20;14.13;;;;;;;;;;10567544;27;20451;-77
2022/09/23 20:41:51;;;;;;;15.25;7.32;;;;;;;;;;10569882;28;20477;-77
2022/09/23 20:46:59;;;;;;;17.58;6.53;;;;;;;;;;10570903;27;20047;-77
2022/09/23 20:52:03;;;;;;;14.90;7.30;;;;;;;;;;10564791;28;20150;-76
2022/09/23 20:57:13;;;;;;;48.90;15.60;;;;;;;;;;10570093;28;20035;-76
2022/09/23 21:02:20;;;;;;;27.67;10.10;;;;;;;;;;10545324;28;20050;-77
2022/09/23 21:07:25;;;;;;;17.73;6.82;;;;;;;;;;10555610;28;20101;-77
2022/09/23 21:12:34;;;;;;;14.73;6.75;;;;;;;;;;10549506;28;20065;-77
2022/09/23 21:17:50;;;;;;;13.77;6.80;;;;;;;;;;10564976;28;20047;-77
2022/09/23 21:22:56;;;;;;;12.95;5.53;;;;;;;;;;10548233;28;20032;-77
2022/09/23 21:28:00;;;;;;;15.07;6.88;;;;;;;;;;10551032;28;20710;-77
2022/09/23 21:33:06;;;;;;;12.32;6.25;;;;;;;;;;10567605;28;20039;-76
2022/09/23 21:38:13;;;;;;;7.35;4.40;;;;;;;;;;10549239;28;20105;-78
2022/09/23 21:43:18;;;;;;;9.98;5.13;;;;;;;;;;10582773;27;20514;-77
2022/09/23 21:48:31;;;;;;;13.20;7.00;;;;;;;;;;10548800;28;20073;-77
2022/09/23 21:53:47;;;;;;;13.35;6.25;;;;;;;;;;10554764;28;20073;-78
2022/09/23 21:58:53;;;;;;;14.93;6.68;;;;;;;;;;10549551;28;20281;-78
2022/09/23 22:04:06;;;;;;;13.23;5.03;;;;;;;;;;10567941;28;20090;-77
2022/09/23 22:09:12;;;;;;;10.70;4.53;;;;;;;;;;10562187;28;20047;-78
2022/09/23 22:14:19;;;;;;;12.85;5.90;;;;;;;;;;10531947;28;20120;-76
2022/09/23 22:19:33;;;;;;;8.57;4.05;;;;;;;;;;10565803;28;20181;-76
2022/09/23 22:24:39;;;;;;;15.10;6.10;;;;;;;;;;10567492;28;20070;-77
2022/09/23 22:35:23;;;;;;;11.00;5.90;;;;;;;;;;10565149;28;20059;-77
2022/09/23 22:40:32;;;;;;;9.93;4.95;;;;;;;;;;10529689;28;20035;-76
2022/09/23 22:45:39;;;;;;;10.52;4.57;;;;;;;;;;10548628;28;20046;-76
2022/09/23 22:50:42;;;;;;;;;;;;;;;;;;10563097;28;20440;-76
2022/09/23 22:56:03;;;;;;;8.52;4.40;;;;;;;;;;10549725;28;20010;-78
2022/09/23 23:01:11;;;;;;;13.18;5.28;;;;;;;;;;10533128;28;20496;-76
2022/09/23 23:06:30;;;;;;;;;;;;;;;;;;10568064;28;20120;-77
2022/09/23 23:11:39;;;;;;;20.20;6.45;;;;;;;;;;10573565;28;20058;-76
2022/09/23 23:16:44;;;;;;;14.27;5.47;;;;;;;;;;10556336;28;20065;-76
2022/09/23 23:21:51;;;;;;;22.05;6.72;;;;;;;;;;10540559;28;20035;-76
2022/09/23 23:26:55;;;;;;;13.85;5.28;;;;;;;;;;10553831;28;20043;-76
2022/09/23 23:32:11;;;;;;;42.45;10.25;;;;;;;;;;10566537;28;20042;-77
2022/09/23 23:37:15;;;;;;;43.10;9.93;;;;;;;;;;10572061;28;20047;-75
2022/09/23 23:42:25;;;;;;;18.00;5.85;;;;;;;;;;10567791;28;20032;-76
2022/09/23 23:47:35;;;;;;;28.55;8.02;;;;;;;;;;10572644;28;20051;-76
2022/09/23 23:52:43;;;;;;;8.30;2.65;;;;;;;;;;10573511;28;20138;-75
2022/09/23 23:57:59;;;;;;;8.77;4.65;;;;;;;;;;10570551;28;20044;-75
